sim
Sign-in with your pilot id or email,
or register
Callsign
Passwort

Schedule Details

Flight Number: OEO7963
Departure: Khartoum International Airport (HSSS) at 14:35
Arrival: Munich Airport (EDDM) at 20:50

Weather Information
Getting current METAR information for HSSS 282130Z 21004KT CAVOK 33/16 Q1009 NOSIG
Getting current METAR information for EDDM 282120Z 10003KT CAVOK 08/07 Q1015 NOSIG

Schedule Frequency

Route Map